createdAt,value
2022-08-31T00:04:34.157Z,5.27
2022-08-31T00:09:36.122Z,5.20
2022-08-31T00:14:37.500Z,5.88
2022-08-31T00:19:39.102Z,4.87
2022-08-31T00:24:40.800Z,4.70
2022-08-31T00:29:42.488Z,5.18
2022-08-31T00:34:44.107Z,4.65
2022-08-31T00:39:45.977Z,4.70
2022-08-31T00:44:47.562Z,5.00
2022-08-31T00:49:51.464Z,4.70
2022-08-31T00:54:54.837Z,4.63
2022-08-31T00:59:56.449Z,4.50
2022-08-31T01:04:58.054Z,4.80
2022-08-31T01:09:59.851Z,4.93
2022-08-31T01:15:03.106Z,4.57
2022-08-31T01:20:04.572Z,4.00
2022-08-31T01:25:06.710Z,4.07
2022-08-31T01:30:10.345Z,4.37
2022-08-31T01:35:12.037Z,3.97
2022-08-31T01:40:15.295Z,4.35
2022-08-31T01:45:17.545Z,4.10
2022-08-31T01:50:19.419Z,4.32
2022-08-31T01:55:20.996Z,4.55
2022-08-31T02:00:22.793Z,4.33
2022-08-31T02:05:24.406Z,4.40
2022-08-31T02:10:26.248Z,4.82
2022-08-31T02:15:27.920Z,4.40
2022-08-31T02:20:29.516Z,5.10
2022-08-31T02:25:31.113Z,4.22
2022-08-31T02:30:32.862Z,4.03
2022-08-31T02:35:35.058Z,4.30
2022-08-31T02:40:38.845Z,4.22
2022-08-31T02:45:42.740Z,4.10
2022-08-31T02:50:46.353Z,4.20
2022-08-31T02:55:47.898Z,3.73
2022-08-31T03:00:49.546Z,4.13
2022-08-31T03:05:52.040Z,4.10
2022-08-31T03:10:53.784Z,4.20
2022-08-31T03:15:56.628Z,4.07
2022-08-31T03:20:57.954Z,4.30
2022-08-31T03:25:59.339Z,4.27
2022-08-31T03:31:02.973Z,4.10
2022-08-31T03:36:05.503Z,4.10
2022-08-31T03:41:06.820Z,3.93
2022-08-31T03:46:11.872Z,4.47
2022-08-31T03:51:15.245Z,4.72
2022-08-31T03:56:16.545Z,4.45
2022-08-31T04:01:17.883Z,4.80
2022-08-31T04:06:19.312Z,4.22
2022-08-31T04:11:29.955Z,4.95
2022-08-31T04:16:43.992Z,4.23
2022-08-31T04:21:45.813Z,4.35
2022-08-31T04:26:47.098Z,4.32
2022-08-31T04:31:48.392Z,4.80
2022-08-31T04:36:49.884Z,5.30
2022-08-31T04:41:51.469Z,5.47
2022-08-31T04:46:52.761Z,6.30
2022-08-31T04:51:54.142Z,6.60
2022-08-31T04:56:55.495Z,6.20
2022-08-31T05:02:00.105Z,6.97
2022-08-31T05:07:01.632Z,6.80
2022-08-31T05:12:03.484Z,6.32
2022-08-31T05:17:06.274Z,6.93
2022-08-31T05:22:15.188Z,7.13
2022-08-31T05:27:16.539Z,8.00
2022-08-31T05:32:17.965Z,7.82
2022-08-31T05:37:20.132Z,8.20
2022-08-31T05:42:25.615Z,10.50
2022-08-31T05:47:26.923Z,9.10
2022-08-31T05:52:28.326Z,8.07
2022-08-31T05:57:29.602Z,7.37
2022-08-31T06:02:31.662Z,7.97
2022-08-31T06:07:33.325Z,7.70
2022-08-31T06:12:34.805Z,7.77
2022-08-31T06:17:36.664Z,7.90
2022-08-31T06:22:38.404Z,6.95
2022-08-31T06:27:40.071Z,7.10
2022-08-31T06:32:42.272Z,7.83
2022-08-31T06:37:43.983Z,7.53
2022-08-31T06:42:45.552Z,8.70
2022-08-31T06:47:47.428Z,9.33
2022-08-31T06:52:48.930Z,8.98
2022-08-31T06:57:50.454Z,9.20
2022-08-31T07:02:54.739Z,9.40
2022-08-31T07:07:59.460Z,9.30
2022-08-31T07:13:01.433Z,9.77
2022-08-31T07:18:06.126Z,10.55
2022-08-31T07:23:11.708Z,10.30
2022-08-31T07:28:13.577Z,9.75
2022-08-31T07:33:16.798Z,10.38
2022-08-31T07:38:40.620Z,10.73
2022-08-31T07:43:45.362Z,10.20
2022-08-31T07:48:47.159Z,10.43
2022-08-31T07:53:48.483Z,9.50
2022-08-31T07:58:50.211Z,9.77
2022-08-31T08:03:53.907Z,10.13
2022-08-31T08:09:21.412Z,10.65
2022-08-31T08:14:17.555Z,9.90
2022-08-31T08:19:24.475Z,10.55
2022-08-31T08:24:26.447Z,11.32
2022-08-31T08:29:28.029Z,10.33
2022-08-31T08:34:32.445Z,9.95
2022-08-31T08:39:34.199Z,10.73
2022-08-31T08:44:36.364Z,10.03
2022-08-31T08:49:40.503Z,9.87
2022-08-31T08:54:44.087Z,8.90
2022-08-31T08:59:46.967Z,9.27
2022-08-31T09:05:09.214Z,9.10
2022-08-31T09:10:31.467Z,8.60
2022-08-31T09:15:40.930Z,8.52
2022-08-31T09:20:42.863Z,8.20
2022-08-31T09:31:25.595Z,7.53
2022-08-31T09:36:39.106Z,7.40
2022-08-31T09:41:42.286Z,6.40
2022-08-31T09:46:48.779Z,6.47
2022-08-31T09:51:50.459Z,6.95
2022-08-31T09:56:56.090Z,6.80
2022-08-31T10:02:01.267Z,6.07
2022-08-31T10:07:24.964Z,6.75
2022-08-31T10:12:37.669Z,6.33
2022-08-31T10:17:43.083Z,6.60
2022-08-31T10:22:47.321Z,5.47
2022-08-31T10:27:52.381Z,6.17
2022-08-31T10:32:58.025Z,5.93
2022-08-31T10:38:08.655Z,6.85
2022-08-31T10:43:16.845Z,6.63
2022-08-31T10:48:23.036Z,7.33
2022-08-31T10:53:34.884Z,6.43
2022-08-31T10:58:41.400Z,6.05
2022-08-31T11:03:42.887Z,6.10
2022-08-31T11:08:49.258Z,5.95
2022-08-31T11:13:54.199Z,6.30
2022-08-31T11:19:14.866Z,6.27
2022-08-31T11:24:37.493Z,6.87
2022-08-31T11:29:41.808Z,6.53
2022-08-31T11:35:08.535Z,6.38
2022-08-31T11:40:11.074Z,7.17
2022-08-31T11:45:38.955Z,7.55
2022-08-31T11:50:40.679Z,7.18
2022-08-31T11:55:49.477Z,8.07
2022-08-31T12:01:00.200Z,6.57
2022-08-31T12:06:01.841Z,7.18
2022-08-31T12:11:21.499Z,7.20
2022-08-31T12:16:46.936Z,7.70
2022-08-31T12:22:11.879Z,7.78
2022-08-31T12:27:16.347Z,7.75
2022-08-31T12:32:37.644Z,8.03
2022-08-31T12:37:39.595Z,6.72
2022-08-31T12:42:46.301Z,7.47
2022-08-31T12:47:56.494Z,7.90
2022-08-31T12:53:07.056Z,7.47
2022-08-31T12:58:25.297Z,7.43
2022-08-31T13:03:29.041Z,8.03
2022-08-31T13:08:34.497Z,9.20
2022-08-31T13:13:37.523Z,7.82
2022-08-31T13:18:39.088Z,8.23
2022-08-31T13:23:44.595Z,8.07
2022-08-31T13:28:53.674Z,13.13
2022-08-31T13:34:02.974Z,8.57
2022-08-31T13:39:15.893Z,8.73
2022-08-31T13:44:22.322Z,8.93
2022-08-31T13:49:31.053Z,9.30
2022-08-31T13:54:34.281Z,9.20
2022-08-31T13:59:37.413Z,7.03
2022-08-31T14:04:48.650Z,12.40
2022-08-31T14:09:50.669Z,8.43
2022-08-31T14:14:52.569Z,10.07
2022-08-31T14:19:54.217Z,7.68
2022-08-31T14:24:56.161Z,7.47
2022-08-31T14:29:58.589Z,7.00
2022-08-31T14:35:07.670Z,8.60
2022-08-31T14:40:13.816Z,7.75
2022-08-31T14:45:18.920Z,7.13
2022-08-31T14:50:23.754Z,6.67
2022-08-31T14:55:25.938Z,7.30
2022-08-31T15:00:29.046Z,8.18
2022-08-31T15:05:35.367Z,6.90
2022-08-31T15:10:38.347Z,6.85
2022-08-31T15:15:39.887Z,7.90
2022-08-31T15:20:42.817Z,7.50
2022-08-31T15:25:44.374Z,7.53
2022-08-31T15:30:45.861Z,9.70
2022-08-31T15:35:47.633Z,7.17
2022-08-31T15:40:50.277Z,9.07
2022-08-31T15:45:51.774Z,8.40
2022-08-31T15:51:00.750Z,8.68
2022-08-31T15:56:08.474Z,7.97
2022-08-31T16:01:16.119Z,8.40
2022-08-31T16:06:20.143Z,9.32
2022-08-31T16:11:25.496Z,10.93
2022-08-31T16:16:28.384Z,8.90
2022-08-31T16:21:35.632Z,9.60
2022-08-31T16:26:39.129Z,9.97
2022-08-31T16:31:41.722Z,9.53
2022-08-31T16:36:44.192Z,9.98
2022-08-31T16:41:46.494Z,12.05
2022-08-31T16:46:48.021Z,10.50
2022-08-31T16:51:50.703Z,10.30
2022-08-31T16:56:52.442Z,10.55
2022-08-31T17:01:54.290Z,10.77
2022-08-31T17:06:56.395Z,9.70
2022-08-31T17:12:00.686Z,9.50
2022-08-31T17:17:06.903Z,9.97
2022-08-31T17:22:09.722Z,9.60
2022-08-31T17:27:20.594Z,9.63
2022-08-31T17:32:23.792Z,9.77
2022-08-31T17:37:27.928Z,8.77
2022-08-31T17:42:30.685Z,8.30
2022-08-31T17:47:33.423Z,8.30
2022-08-31T17:52:35.001Z,9.17
2022-08-31T17:57:36.551Z,8.98
2022-08-31T18:02:39.356Z,9.23
2022-08-31T18:07:41.138Z,9.30
2022-08-31T18:12:42.988Z,8.57
2022-08-31T18:17:46.370Z,8.90
2022-08-31T18:22:52.072Z,8.70
2022-08-31T18:27:55.490Z,9.03
2022-08-31T18:33:00.084Z,9.18
2022-08-31T18:38:02.242Z,9.02
2022-08-31T18:43:22.366Z,9.37
2022-08-31T18:48:26.282Z,9.32
2022-08-31T18:53:34.463Z,9.13
2022-08-31T18:58:36.597Z,9.13
2022-08-31T19:03:38.041Z,9.93
2022-08-31T19:08:39.385Z,9.98
2022-08-31T19:13:41.582Z,10.10
2022-08-31T19:18:44.047Z,9.17
2022-08-31T19:23:46.261Z,10.40
2022-08-31T19:28:48.928Z,10.18
2022-08-31T19:33:56.470Z,10.17
2022-08-31T19:38:59.691Z,10.93
2022-08-31T19:44:08.148Z,10.68
2022-08-31T19:49:11.071Z,10.67
2022-08-31T19:54:12.881Z,9.43
2022-08-31T19:59:18.188Z,9.73
2022-08-31T20:04:20.907Z,11.32
2022-08-31T20:09:25.558Z,11.43
2022-08-31T20:14:26.988Z,10.70
2022-08-31T20:19:29.388Z,10.45
2022-08-31T20:24:32.773Z,10.60
2022-08-31T20:29:39.570Z,10.55
2022-08-31T20:34:40.929Z,10.27
2022-08-31T20:39:42.641Z,10.87
2022-08-31T20:44:46.939Z,10.13
2022-08-31T20:49:53.457Z,12.15
2022-08-31T20:55:01.721Z,10.65
2022-08-31T21:00:05.814Z,10.50
2022-08-31T21:05:37.555Z,10.27
2022-08-31T21:10:37.475Z,10.20
2022-08-31T21:15:40.956Z,10.53
2022-08-31T21:20:42.512Z,10.30
2022-08-31T21:25:44.920Z,10.25
2022-08-31T21:30:49.267Z,10.30
2022-08-31T21:36:00.357Z,10.50
2022-08-31T21:41:01.821Z,13.43
2022-08-31T21:46:10.687Z,10.65
2022-08-31T21:51:20.054Z,11.27
2022-08-31T21:56:22.596Z,10.57
2022-08-31T22:01:25.109Z,10.27
2022-08-31T22:06:29.125Z,11.00
2022-08-31T22:11:31.763Z,10.60
2022-08-31T22:16:36.097Z,10.13
2022-08-31T22:21:38.020Z,10.60
2022-08-31T22:26:44.437Z,10.20
2022-08-31T22:31:46.148Z,12.05
2022-08-31T22:36:50.649Z,10.25
2022-08-31T22:41:53.292Z,11.13
2022-08-31T22:46:57.168Z,10.95
2022-08-31T22:51:58.694Z,11.35
2022-08-31T22:57:01.673Z,11.70
2022-08-31T23:02:04.122Z,11.40
2022-08-31T23:07:05.782Z,11.35
2022-08-31T23:12:09.084Z,11.73
2022-08-31T23:17:11.087Z,12.27
2022-08-31T23:22:15.468Z,11.32
2022-08-31T23:27:19.415Z,11.35
2022-08-31T23:32:22.266Z,10.67
2022-08-31T23:37:25.879Z,10.40
2022-08-31T23:42:28.540Z,10.70
2022-08-31T23:47:31.029Z,10.93
2022-08-31T23:52:35.554Z,11.05
2022-08-31T23:57:37.150Z,10.07
